sensor_id;sensor_type;location;lat;lon;timestamp;pressure;altitude;pressure_sealevel;temperature;humidity
18527;BME280;9393;42.158;24.748;2022-12-07T00:02:31;99756.06;;;9.38;82.10
18527;BME280;9393;42.158;24.748;2022-12-07T00:05:35;99761.66;;;9.54;81.65
18527;BME280;9393;42.158;24.748;2022-12-07T00:08:40;99757.31;;;9.34;82.08
18527;BME280;9393;42.158;24.748;2022-12-07T00:11:44;99769.41;;;9.45;81.89
18527;BME280;9393;42.158;24.748;2022-12-07T00:14:51;99761.34;;;9.48;81.13
18527;BME280;9393;42.158;24.748;2022-12-07T00:17:54;99756.47;;;9.34;81.64
18527;BME280;9393;42.158;24.748;2022-12-07T00:21:01;99762.75;;;9.31;81.43
18527;BME280;9393;42.158;24.748;2022-12-07T00:24:07;99758.38;;;9.32;80.82
18527;BME280;9393;42.158;24.748;2022-12-07T00:27:11;99761.44;;;9.16;81.43
18527;BME280;9393;42.158;24.748;2022-12-07T00:30:15;99759.94;;;9.13;81.72
18527;BME280;9393;42.158;24.748;2022-12-07T00:33:19;99762.19;;;9.07;81.73
18527;BME280;9393;42.158;24.748;2022-12-07T00:36:23;99765.13;;;9.13;81.49
18527;BME280;9393;42.158;24.748;2022-12-07T00:39:30;99767.22;;;8.99;81.66
18527;BME280;9393;42.158;24.748;2022-12-07T00:42:33;99757.69;;;9.09;81.94
18527;BME280;9393;42.158;24.748;2022-12-07T00:45:37;99762.06;;;9.08;81.72
18527;BME280;9393;42.158;24.748;2022-12-07T00:48:41;99757.84;;;8.96;81.68
18527;BME280;9393;42.158;24.748;2022-12-07T00:51:47;99755.47;;;9.04;81.28
18527;BME280;9393;42.158;24.748;2022-12-07T00:54:53;99755.97;;;8.98;81.63
18527;BME280;9393;42.158;24.748;2022-12-07T00:57:56;99755.91;;;9.09;81.42
18527;BME280;9393;42.158;24.748;2022-12-07T01:01:02;99751.91;;;9.05;81.48
18527;BME280;9393;42.158;24.748;2022-12-07T01:04:06;99754.13;;;8.89;81.61
18527;BME280;9393;42.158;24.748;2022-12-07T01:07:09;99751.03;;;8.95;81.34
18527;BME280;9393;42.158;24.748;2022-12-07T01:10:14;99754.53;;;9.05;80.86
18527;BME280;9393;42.158;24.748;2022-12-07T01:13:18;99750.50;;;9.01;80.41
18527;BME280;9393;42.158;24.748;2022-12-07T01:16:23;99747.09;;;9.01;80.69
18527;BME280;9393;42.158;24.748;2022-12-07T01:19:27;99739.47;;;8.88;80.88
18527;BME280;9393;42.158;24.748;2022-12-07T01:22:31;99738.72;;;8.97;80.46
18527;BME280;9393;42.158;24.748;2022-12-07T01:25:40;99735.69;;;8.92;80.45
18527;BME280;9393;42.158;24.748;2022-12-07T01:28:44;99735.84;;;9.00;79.94
18527;BME280;9393;42.158;24.748;2022-12-07T01:31:48;99731.47;;;8.80;81.01
18527;BME280;9393;42.158;24.748;2022-12-07T01:34:52;99730.91;;;8.77;81.34
18527;BME280;9393;42.158;24.748;2022-12-07T01:37:56;99732.97;;;8.62;81.66
18527;BME280;9393;42.158;24.748;2022-12-07T01:41:01;99721.84;;;8.71;81.92
18527;BME280;9393;42.158;24.748;2022-12-07T01:44:15;99721.31;;;8.77;81.45
18527;BME280;9393;42.158;24.748;2022-12-07T01:47:19;99713.63;;;8.96;80.77
18527;BME280;9393;42.158;24.748;2022-12-07T01:50:25;99707.94;;;9.02;80.34
18527;BME280;9393;42.158;24.748;2022-12-07T01:53:30;99714.28;;;9.09;79.67
18527;BME280;9393;42.158;24.748;2022-12-07T01:56:37;99711.75;;;9.19;79.76
18527;BME280;9393;42.158;24.748;2022-12-07T01:59:42;99714.97;;;9.11;79.57
18527;BME280;9393;42.158;24.748;2022-12-07T02:02:51;99717.78;;;9.20;79.38
18527;BME280;9393;42.158;24.748;2022-12-07T02:05:57;99710.66;;;9.22;79.22
18527;BME280;9393;42.158;24.748;2022-12-07T02:09:01;99711.59;;;9.21;79.25
18527;BME280;9393;42.158;24.748;2022-12-07T02:12:07;99706.66;;;8.97;80.13
18527;BME280;9393;42.158;24.748;2022-12-07T02:15:11;99717.72;;;9.10;80.32
18527;BME280;9393;42.158;24.748;2022-12-07T02:18:21;99705.13;;;9.15;79.56
18527;BME280;9393;42.158;24.748;2022-12-07T02:21:32;99697.47;;;9.13;79.80
18527;BME280;9393;42.158;24.748;2022-12-07T02:24:53;99691.13;;;9.06;80.26
18527;BME280;9393;42.158;24.748;2022-12-07T02:28:03;99689.72;;;9.23;79.51
18527;BME280;9393;42.158;24.748;2022-12-07T02:31:14;99681.88;;;9.13;80.18
18527;BME280;9393;42.158;24.748;2022-12-07T02:34:28;99681.03;;;9.13;79.99
18527;BME280;9393;42.158;24.748;2022-12-07T02:37:36;99679.28;;;9.13;79.49
18527;BME280;9393;42.158;24.748;2022-12-07T02:40:46;99689.84;;;9.22;79.20
18527;BME280;9393;42.158;24.748;2022-12-07T02:43:54;99683.81;;;9.21;78.85
18527;BME280;9393;42.158;24.748;2022-12-07T02:47:02;99684.66;;;9.31;78.88
18527;BME280;9393;42.158;24.748;2022-12-07T02:50:08;99684.09;;;9.28;78.54
18527;BME280;9393;42.158;24.748;2022-12-07T02:53:30;99675.84;;;9.13;78.96
18527;BME280;9393;42.158;24.748;2022-12-07T02:56:41;99675.28;;;9.09;79.21
18527;BME280;9393;42.158;24.748;2022-12-07T02:59:58;99663.44;;;8.75;80.23
18527;BME280;9393;42.158;24.748;2022-12-07T03:03:09;99668.06;;;8.92;79.61
18527;BME280;9393;42.158;24.748;2022-12-07T03:06:18;99662.84;;;8.92;80.12
18527;BME280;9393;42.158;24.748;2022-12-07T03:09:30;99664.78;;;9.00;79.58
18527;BME280;9393;42.158;24.748;2022-12-07T03:12:42;99665.81;;;9.08;79.08
18527;BME280;9393;42.158;24.748;2022-12-07T03:15:55;99662.41;;;8.87;79.98
18527;BME280;9393;42.158;24.748;2022-12-07T03:19:05;99678.63;;;9.00;79.68
18527;BME280;9393;42.158;24.748;2022-12-07T03:22:13;99678.50;;;9.02;79.57
18527;BME280;9393;42.158;24.748;2022-12-07T03:25:17;99671.06;;;9.18;79.10
18527;BME280;9393;42.158;24.748;2022-12-07T03:28:23;99677.13;;;9.28;78.45
18527;BME280;9393;42.158;24.748;2022-12-07T03:31:30;99674.81;;;9.04;79.32
18527;BME280;9393;42.158;24.748;2022-12-07T03:34:41;99669.66;;;9.14;79.03
18527;BME280;9393;42.158;24.748;2022-12-07T03:37:51;99675.72;;;9.24;78.31
18527;BME280;9393;42.158;24.748;2022-12-07T03:41:00;99677.53;;;9.24;78.24
18527;BME280;9393;42.158;24.748;2022-12-07T03:44:05;99674.19;;;8.91;79.19
18527;BME280;9393;42.158;24.748;2022-12-07T03:47:13;99678.28;;;9.14;78.75
18527;BME280;9393;42.158;24.748;2022-12-07T03:50:25;99674.41;;;8.99;79.24
18527;BME280;9393;42.158;24.748;2022-12-07T03:53:35;99669.19;;;8.99;79.28
18527;BME280;9393;42.158;24.748;2022-12-07T03:56:42;99664.38;;;8.74;80.71
18527;BME280;9393;42.158;24.748;2022-12-07T03:59:46;99665.56;;;8.70;80.59
18527;BME280;9393;42.158;24.748;2022-12-07T04:02:51;99657.97;;;8.78;80.43
18527;BME280;9393;42.158;24.748;2022-12-07T04:05:57;99654.84;;;8.84;79.66
18527;BME280;9393;42.158;24.748;2022-12-07T04:09:01;99661.25;;;8.80;79.39
18527;BME280;9393;42.158;24.748;2022-12-07T04:12:05;99660.31;;;8.81;79.24
18527;BME280;9393;42.158;24.748;2022-12-07T04:15:09;99662.59;;;8.75;79.32
18527;BME280;9393;42.158;24.748;2022-12-07T04:18:12;99657.78;;;8.70;79.82
18527;BME280;9393;42.158;24.748;2022-12-07T04:21:17;99654.97;;;8.83;79.49
18527;BME280;9393;42.158;24.748;2022-12-07T04:24:21;99655.88;;;8.72;79.74
18527;BME280;9393;42.158;24.748;2022-12-07T04:27:26;99641.41;;;8.79;79.71
18527;BME280;9393;42.158;24.748;2022-12-07T04:30:29;99642.22;;;8.80;79.72
18527;BME280;9393;42.158;24.748;2022-12-07T04:33:33;99648.78;;;8.74;79.59
18527;BME280;9393;42.158;24.748;2022-12-07T04:36:40;99654.81;;;8.54;80.75
18527;BME280;9393;42.158;24.748;2022-12-07T04:39:44;99651.19;;;8.66;80.60
18527;BME280;9393;42.158;24.748;2022-12-07T04:42:47;99645.81;;;8.79;80.20
18527;BME280;9393;42.158;24.748;2022-12-07T04:45:51;99657.16;;;8.78;79.77
18527;BME280;9393;42.158;24.748;2022-12-07T04:48:55;99647.88;;;8.85;79.56
18527;BME280;9393;42.158;24.748;2022-12-07T04:52:00;99643.50;;;8.85;79.56
18527;BME280;9393;42.158;24.748;2022-12-07T04:55:05;99649.91;;;8.81;79.74
18527;BME280;9393;42.158;24.748;2022-12-07T04:58:08;99648.25;;;8.80;79.68
18527;BME280;9393;42.158;24.748;2022-12-07T05:01:13;99655.38;;;8.78;79.75
18527;BME280;9393;42.158;24.748;2022-12-07T05:04:17;99652.59;;;8.38;81.30
18527;BME280;9393;42.158;24.748;2022-12-07T05:07:22;99658.66;;;8.28;81.95
18527;BME280;9393;42.158;24.748;2022-12-07T05:10:26;99658.81;;;8.58;80.73
18527;BME280;9393;42.158;24.748;2022-12-07T05:13:30;99659.56;;;8.38;81.70
18527;BME280;9393;42.158;24.748;2022-12-07T05:16:33;99666.59;;;8.58;80.33
18527;BME280;9393;42.158;24.748;2022-12-07T05:19:37;99663.81;;;8.71;79.48
18527;BME280;9393;42.158;24.748;2022-12-07T05:22:43;99660.44;;;8.80;79.41
18527;BME280;9393;42.158;24.748;2022-12-07T05:25:46;99660.50;;;8.89;78.79
18527;BME280;9393;42.158;24.748;2022-12-07T05:28:51;99664.69;;;8.81;78.53
18527;BME280;9393;42.158;24.748;2022-12-07T05:31:54;99656.25;;;8.88;78.39
18527;BME280;9393;42.158;24.748;2022-12-07T05:34:58;99671.16;;;8.86;78.42
18527;BME280;9393;42.158;24.748;2022-12-07T05:38:03;99668.75;;;8.94;78.29
18527;BME280;9393;42.158;24.748;2022-12-07T05:41:08;99667.34;;;8.90;78.14
18527;BME280;9393;42.158;24.748;2022-12-07T05:44:33;99660.25;;;8.92;78.24
18527;BME280;9393;42.158;24.748;2022-12-07T05:47:37;99666.09;;;8.64;79.13
18527;BME280;9393;42.158;24.748;2022-12-07T05:50:41;99659.81;;;8.87;78.34
18527;BME280;9393;42.158;24.748;2022-12-07T05:53:47;99668.63;;;8.96;78.14
18527;BME280;9393;42.158;24.748;2022-12-07T05:56:51;99669.19;;;8.99;78.07
18527;BME280;9393;42.158;24.748;2022-12-07T05:59:54;99667.84;;;9.05;77.77
18527;BME280;9393;42.158;24.748;2022-12-07T06:02:57;99669.09;;;8.17;81.76
18527;BME280;9393;42.158;24.748;2022-12-07T06:06:01;99676.94;;;8.05;82.06
18527;BME280;9393;42.158;24.748;2022-12-07T06:09:06;99664.66;;;8.39;81.00
18527;BME280;9393;42.158;24.748;2022-12-07T06:12:11;99673.03;;;8.43;81.08
18527;BME280;9393;42.158;24.748;2022-12-07T06:15:33;99679.09;;;8.64;79.95
18527;BME280;9393;42.158;24.748;2022-12-07T06:18:38;99677.97;;;8.46;80.60
18527;BME280;9393;42.158;24.748;2022-12-07T06:21:42;99676.28;;;8.56;80.32
18527;BME280;9393;42.158;24.748;2022-12-07T06:24:48;99680.97;;;8.62;80.54
18527;BME280;9393;42.158;24.748;2022-12-07T06:27:51;99679.91;;;8.85;79.52
18527;BME280;9393;42.158;24.748;2022-12-07T06:30:57;99686.56;;;8.78;79.16
18527;BME280;9393;42.158;24.748;2022-12-07T06:34:03;99683.22;;;8.87;79.13
18527;BME280;9393;42.158;24.748;2022-12-07T06:37:07;99685.94;;;8.86;79.02
18527;BME280;9393;42.158;24.748;2022-12-07T06:40:12;99678.25;;;8.63;79.55
18527;BME280;9393;42.158;24.748;2022-12-07T06:43:16;99694.94;;;7.75;83.16
18527;BME280;9393;42.158;24.748;2022-12-07T06:46:20;99685.47;;;7.85;83.26
18527;BME280;9393;42.158;24.748;2022-12-07T06:49:24;99686.75;;;7.80;84.26
18527;BME280;9393;42.158;24.748;2022-12-07T06:52:28;99693.22;;;7.96;84.45
18527;BME280;9393;42.158;24.748;2022-12-07T06:55:34;99688.59;;;8.54;82.00
18527;BME280;9393;42.158;24.748;2022-12-07T06:58:39;99685.09;;;8.44;82.67
18527;BME280;9393;42.158;24.748;2022-12-07T07:01:43;99684.97;;;8.87;80.87
18527;BME280;9393;42.158;24.748;2022-12-07T07:04:46;99687.19;;;9.12;80.03
18527;BME280;9393;42.158;24.748;2022-12-07T07:07:50;99684.28;;;9.05;80.25
18527;BME280;9393;42.158;24.748;2022-12-07T07:11:15;99673.53;;;9.20;80.26
18527;BME280;9393;42.158;24.748;2022-12-07T07:14:19;99673.41;;;9.21;80.58
18527;BME280;9393;42.158;24.748;2022-12-07T07:17:24;99683.75;;;9.11;81.35
18527;BME280;9393;42.158;24.748;2022-12-07T07:20:27;99686.63;;;8.88;82.66
18527;BME280;9393;42.158;24.748;2022-12-07T07:23:31;99689.16;;;8.99;82.18
18527;BME280;9393;42.158;24.748;2022-12-07T07:26:36;99687.34;;;9.41;80.57
18527;BME280;9393;42.158;24.748;2022-12-07T07:29:40;99676.16;;;9.59;79.96
18527;BME280;9393;42.158;24.748;2022-12-07T07:32:44;99680.59;;;9.69;79.97
18527;BME280;9393;42.158;24.748;2022-12-07T07:35:48;99680.78;;;9.96;78.75
18527;BME280;9393;42.158;24.748;2022-12-07T07:38:51;99685.19;;;9.95;78.21
18527;BME280;9393;42.158;24.748;2022-12-07T07:41:56;99693.41;;;10.00;77.94
18527;BME280;9393;42.158;24.748;2022-12-07T07:45:02;99701.31;;;9.80;78.90
18527;BME280;9393;42.158;24.748;2022-12-07T07:48:07;99703.69;;;10.02;78.05
18527;BME280;9393;42.158;24.748;2022-12-07T07:51:10;99701.69;;;10.15;78.10
18527;BME280;9393;42.158;24.748;2022-12-07T07:54:14;99698.84;;;10.47;77.18
18527;BME280;9393;42.158;24.748;2022-12-07T07:57:19;99692.38;;;10.70;75.97
18527;BME280;9393;42.158;24.748;2022-12-07T08:00:23;99703.06;;;10.86;75.01
18527;BME280;9393;42.158;24.748;2022-12-07T08:03:27;99694.97;;;10.70;75.94
18527;BME280;9393;42.158;24.748;2022-12-07T08:06:31;99696.78;;;10.41;77.62
18527;BME280;9393;42.158;24.748;2022-12-07T08:09:35;99698.66;;;10.87;75.42
18527;BME280;9393;42.158;24.748;2022-12-07T08:12:41;99689.53;;;11.20;74.93
18527;BME280;9393;42.158;24.748;2022-12-07T08:16:03;99689.47;;;11.39;73.10
18527;BME280;9393;42.158;24.748;2022-12-07T08:19:07;99697.69;;;11.81;72.13
18527;BME280;9393;42.158;24.748;2022-12-07T08:22:11;99699.50;;;12.25;71.35
18527;BME280;9393;42.158;24.748;2022-12-07T08:25:15;99699.50;;;12.25;69.94
18527;BME280;9393;42.158;24.748;2022-12-07T08:28:20;99692.69;;;12.50;69.14
18527;BME280;9393;42.158;24.748;2022-12-07T08:31:24;99688.50;;;12.57;70.83
18527;BME280;9393;42.158;24.748;2022-12-07T08:34:30;99691.94;;;12.75;67.73
18527;BME280;9393;42.158;24.748;2022-12-07T08:37:33;99698.81;;;13.20;66.81
18527;BME280;9393;42.158;24.748;2022-12-07T08:40:37;99701.78;;;13.58;66.66
18527;BME280;9393;42.158;24.748;2022-12-07T08:43:42;99691.22;;;13.76;64.61
18527;BME280;9393;42.158;24.748;2022-12-07T08:46:48;99691.03;;;13.70;64.43
18527;BME280;9393;42.158;24.748;2022-12-07T08:49:53;99673.16;;;13.57;66.45
18527;BME280;9393;42.158;24.748;2022-12-07T08:52:58;99677.25;;;14.17;64.58
18527;BME280;9393;42.158;24.748;2022-12-07T08:56:02;99675.53;;;14.42;62.95
18527;BME280;9393;42.158;24.748;2022-12-07T08:59:08;99674.00;;;14.24;63.88
18527;BME280;9393;42.158;24.748;2022-12-07T09:02:12;99674.88;;;14.81;62.05
18527;BME280;9393;42.158;24.748;2022-12-07T09:05:16;99671.44;;;14.40;62.83
18527;BME280;9393;42.158;24.748;2022-12-07T09:08:21;99666.00;;;14.41;63.12
18527;BME280;9393;42.158;24.748;2022-12-07T09:11:27;99654.34;;;14.76;62.50
18527;BME280;9393;42.158;24.748;2022-12-07T09:14:32;99642.69;;;15.03;61.63
18527;BME280;9393;42.158;24.748;2022-12-07T09:17:36;99634.03;;;14.54;62.53
18527;BME280;9393;42.158;24.748;2022-12-07T09:20:40;99633.19;;;14.86;62.19
18527;BME280;9393;42.158;24.748;2022-12-07T09:23:43;99634.97;;;15.01;61.52
18527;BME280;9393;42.158;24.748;2022-12-07T09:26:47;99625.75;;;15.05;61.29
18527;BME280;9393;42.158;24.748;2022-12-07T09:29:52;99620.91;;;15.33;60.48
18527;BME280;9393;42.158;24.748;2022-12-07T09:32:57;99619.69;;;15.52;59.32
18527;BME280;9393;42.158;24.748;2022-12-07T09:36:02;99616.66;;;15.71;59.64
18527;BME280;9393;42.158;24.748;2022-12-07T09:39:06;99610.34;;;15.80;59.54
18527;BME280;9393;42.158;24.748;2022-12-07T09:42:24;99613.78;;;15.89;57.90
18527;BME280;9393;42.158;24.748;2022-12-07T09:45:33;99608.75;;;15.40;58.86
18527;BME280;9393;42.158;24.748;2022-12-07T09:48:38;99594.75;;;15.48;58.71
18527;BME280;9393;42.158;24.748;2022-12-07T09:51:42;99585.72;;;15.50;58.59
18527;BME280;9393;42.158;24.748;2022-12-07T09:54:48;99586.28;;;15.30;59.24
18527;BME280;9393;42.158;24.748;2022-12-07T09:57:53;99582.56;;;15.16;59.70
18527;BME280;9393;42.158;24.748;2022-12-07T10:01:09;99587.97;;;15.61;58.85
18527;BME280;9393;42.158;24.748;2022-12-07T10:04:15;99592.31;;;16.00;57.54
18527;BME280;9393;42.158;24.748;2022-12-07T10:07:20;99585.47;;;15.91;56.57
18527;BME280;9393;42.158;24.748;2022-12-07T10:10:26;99578.59;;;16.12;56.23
18527;BME280;9393;42.158;24.748;2022-12-07T10:13:35;99588.44;;;16.56;56.06
18527;BME280;9393;42.158;24.748;2022-12-07T10:16:41;99580.56;;;16.33;56.55
18527;BME280;9393;42.158;24.748;2022-12-07T10:19:45;99568.59;;;15.85;57.59
18527;BME280;9393;42.158;24.748;2022-12-07T10:23:01;99563.84;;;16.26;56.18
18527;BME280;9393;42.158;24.748;2022-12-07T10:26:26;99553.06;;;15.98;56.63
18527;BME280;9393;42.158;24.748;2022-12-07T10:29:33;99548.88;;;16.04;56.21
18527;BME280;9393;42.158;24.748;2022-12-07T10:32:39;99542.34;;;15.77;57.16
18527;BME280;9393;42.158;24.748;2022-12-07T10:35:44;99539.09;;;15.44;57.56
18527;BME280;9393;42.158;24.748;2022-12-07T10:38:50;99548.44;;;15.39;58.51
18527;BME280;9393;42.158;24.748;2022-12-07T10:41:56;99544.22;;;15.91;57.13
18527;BME280;9393;42.158;24.748;2022-12-07T10:45:09;99549.19;;;16.09;56.93
18527;BME280;9393;42.158;24.748;2022-12-07T10:48:26;99549.53;;;16.06;56.57
18527;BME280;9393;42.158;24.748;2022-12-07T10:51:38;99556.78;;;16.41;56.69
18527;BME280;9393;42.158;24.748;2022-12-07T10:54:56;99555.59;;;16.66;55.54
18527;BME280;9393;42.158;24.748;2022-12-07T10:58:23;99547.19;;;16.48;56.58
18527;BME280;9393;42.158;24.748;2022-12-07T11:01:34;99541.88;;;16.19;56.21
18527;BME280;9393;42.158;24.748;2022-12-07T11:04:57;99539.03;;;16.21;57.23
18527;BME280;9393;42.158;24.748;2022-12-07T11:08:12;99536.38;;;16.06;57.23
18527;BME280;9393;42.158;24.748;2022-12-07T11:11:23;99528.81;;;15.88;57.01
18527;BME280;9393;42.158;24.748;2022-12-07T11:14:38;99530.09;;;15.92;57.46
18527;BME280;9393;42.158;24.748;2022-12-07T11:17:49;99520.84;;;15.51;58.69
18527;BME280;9393;42.158;24.748;2022-12-07T11:21:06;99520.53;;;15.07;59.90
18527;BME280;9393;42.158;24.748;2022-12-07T11:24:16;99512.56;;;14.84;61.29
18527;BME280;9393;42.158;24.748;2022-12-07T11:27:25;99506.69;;;14.82;61.30
18527;BME280;9393;42.158;24.748;2022-12-07T11:30:38;99499.97;;;15.10;60.64
18527;BME280;9393;42.158;24.748;2022-12-07T11:33:46;99505.94;;;15.35;59.62
18527;BME280;9393;42.158;24.748;2022-12-07T11:36:56;99497.16;;;15.20;60.19
18527;BME280;9393;42.158;24.748;2022-12-07T11:40:02;99495.06;;;15.15;59.92
18527;BME280;9393;42.158;24.748;2022-12-07T11:43:15;99492.81;;;14.96;60.71
18527;BME280;9393;42.158;24.748;2022-12-07T11:46:24;99492.75;;;14.74;61.16
18527;BME280;9393;42.158;24.748;2022-12-07T11:49:40;99478.88;;;14.57;62.00
18527;BME280;9393;42.158;24.748;2022-12-07T11:52:48;99479.50;;;14.59;61.80
18527;BME280;9393;42.158;24.748;2022-12-07T11:55:57;99474.31;;;14.51;61.83
18527;BME280;9393;42.158;24.748;2022-12-07T11:59:09;99472.84;;;14.40;62.02
18527;BME280;9393;42.158;24.748;2022-12-07T12:02:20;99469.72;;;14.45;61.82
18527;BME280;9393;42.158;24.748;2022-12-07T12:05:27;99471.69;;;14.51;62.05
18527;BME280;9393;42.158;24.748;2022-12-07T12:08:37;99455.59;;;14.46;62.26
18527;BME280;9393;42.158;24.748;2022-12-07T12:12:21;99460.06;;;14.37;62.49
18527;BME280;9393;42.158;24.748;2022-12-07T12:16:06;99450.06;;;14.25;62.87
18527;BME280;9393;42.158;24.748;2022-12-07T12:19:25;99459.91;;;14.23;62.89
18527;BME280;9393;42.158;24.748;2022-12-07T12:22:36;99455.00;;;14.20;63.12
18527;BME280;9393;42.158;24.748;2022-12-07T12:25:45;99447.81;;;13.89;64.27
18527;BME280;9393;42.158;24.748;2022-12-07T12:28:52;99448.28;;;13.93;64.25
18527;BME280;9393;42.158;24.748;2022-12-07T12:32:07;99455.00;;;14.03;63.97
18527;BME280;9393;42.158;24.748;2022-12-07T12:35:28;99433.72;;;13.90;64.13
18527;BME280;9393;42.158;24.748;2022-12-07T12:38:33;99435.03;;;13.78;64.96
18527;BME280;9393;42.158;24.748;2022-12-07T12:41:54;99425.03;;;13.65;65.46
18527;BME280;9393;42.158;24.748;2022-12-07T12:45:19;99417.19;;;13.74;65.21
18527;BME280;9393;42.158;24.748;2022-12-07T12:48:28;99424.56;;;13.70;65.62
18527;BME280;9393;42.158;24.748;2022-12-07T12:51:37;99420.94;;;13.87;65.24
18527;BME280;9393;42.158;24.748;2022-12-07T12:54:58;99423.25;;;13.58;66.17
18527;BME280;9393;42.158;24.748;2022-12-07T13:02:09;99427.97;;;13.38;67.35
18527;BME280;9393;42.158;24.748;2022-12-07T13:05:20;99424.72;;;13.36;67.35
18527;BME280;9393;42.158;24.748;2022-12-07T13:08:25;99415.38;;;13.34;67.13
18527;BME280;9393;42.158;24.748;2022-12-07T13:11:40;99413.56;;;13.42;67.15
18527;BME280;9393;42.158;24.748;2022-12-07T13:14:56;99413.06;;;13.14;67.94
18527;BME280;9393;42.158;24.748;2022-12-07T13:18:21;99412.09;;;13.32;67.60
18527;BME280;9393;42.158;24.748;2022-12-07T13:21:42;99413.91;;;13.23;67.63
18527;BME280;9393;42.158;24.748;2022-12-07T13:24:46;99417.50;;;13.22;67.94
18527;BME280;9393;42.158;24.748;2022-12-07T13:27:56;99421.91;;;13.30;67.16
18527;BME280;9393;42.158;24.748;2022-12-07T13:31:10;99425.19;;;13.24;67.58
18527;BME280;9393;42.158;24.748;2022-12-07T13:34:31;99415.00;;;13.21;67.49
18527;BME280;9393;42.158;24.748;2022-12-07T13:37:35;99422.69;;;13.14;67.77
18527;BME280;9393;42.158;24.748;2022-12-07T13:40:40;99420.25;;;13.21;67.69
18527;BME280;9393;42.158;24.748;2022-12-07T13:43:45;99427.63;;;13.09;67.53
18527;BME280;9393;42.158;24.748;2022-12-07T13:46:53;99422.63;;;12.98;67.81
18527;BME280;9393;42.158;24.748;2022-12-07T13:50:22;99417.22;;;12.91;68.43
18527;BME280;9393;42.158;24.748;2022-12-07T13:53:27;99421.72;;;13.15;67.74
18527;BME280;9393;42.158;24.748;2022-12-07T13:56:33;99434.34;;;13.20;67.45
18527;BME280;9393;42.158;24.748;2022-12-07T13:59:38;99428.44;;;13.18;67.43
18527;BME280;9393;42.158;24.748;2022-12-07T14:02:55;99424.84;;;13.19;67.21
18527;BME280;9393;42.158;24.748;2022-12-07T14:06:07;99421.56;;;13.25;66.95
18527;BME280;9393;42.158;24.748;2022-12-07T14:09:18;99427.22;;;13.04;67.57
18527;BME280;9393;42.158;24.748;2022-12-07T14:12:23;99425.34;;;12.72;68.76
18527;BME280;9393;42.158;24.748;2022-12-07T14:15:30;99436.91;;;12.61;69.25
18527;BME280;9393;42.158;24.748;2022-12-07T14:18:38;99433.31;;;12.62;69.42
18527;BME280;9393;42.158;24.748;2022-12-07T14:21:43;99430.59;;;12.72;69.08
18527;BME280;9393;42.158;24.748;2022-12-07T14:24:47;99436.78;;;12.71;69.14
18527;BME280;9393;42.158;24.748;2022-12-07T14:27:53;99424.84;;;12.69;68.84
18527;BME280;9393;42.158;24.748;2022-12-07T14:31:00;99427.16;;;12.80;69.08
18527;BME280;9393;42.158;24.748;2022-12-07T14:34:04;99427.31;;;12.78;68.77
18527;BME280;9393;42.158;24.748;2022-12-07T14:37:09;99435.00;;;12.80;68.81
18527;BME280;9393;42.158;24.748;2022-12-07T14:40:15;99419.16;;;12.81;68.84
18527;BME280;9393;42.158;24.748;2022-12-07T14:43:20;99432.19;;;12.73;69.08
18527;BME280;9393;42.158;24.748;2022-12-07T14:46:24;99432.56;;;12.78;69.14
18527;BME280;9393;42.158;24.748;2022-12-07T14:49:28;99432.00;;;12.66;69.56
18527;BME280;9393;42.158;24.748;2022-12-07T14:52:38;99425.97;;;12.66;69.52
18527;BME280;9393;42.158;24.748;2022-12-07T14:56:03;99426.59;;;12.60;69.45
18527;BME280;9393;42.158;24.748;2022-12-07T14:59:08;99430.19;;;12.59;69.52
18527;BME280;9393;42.158;24.748;2022-12-07T15:02:13;99432.59;;;12.52;69.93
18527;BME280;9393;42.158;24.748;2022-12-07T15:05:18;99425.94;;;12.58;69.61
18527;BME280;9393;42.158;24.748;2022-12-07T15:08:24;99429.03;;;12.53;69.94
18527;BME280;9393;42.158;24.748;2022-12-07T15:11:28;99419.97;;;12.40;71.02
18527;BME280;9393;42.158;24.748;2022-12-07T15:14:31;99426.88;;;12.49;70.22
18527;BME280;9393;42.158;24.748;2022-12-07T15:17:35;99428.84;;;12.47;70.10
18527;BME280;9393;42.158;24.748;2022-12-07T15:20:39;99440.72;;;12.41;70.49
18527;BME280;9393;42.158;24.748;2022-12-07T15:23:46;99440.06;;;12.39;70.59
18527;BME280;9393;42.158;24.748;2022-12-07T15:26:50;99449.50;;;12.32;70.92
18527;BME280;9393;42.158;24.748;2022-12-07T15:29:54;99447.06;;;12.31;71.07
18527;BME280;9393;42.158;24.748;2022-12-07T15:32:58;99448.03;;;12.30;71.09
18527;BME280;9393;42.158;24.748;2022-12-07T15:36:02;99455.19;;;12.28;71.37
18527;BME280;9393;42.158;24.748;2022-12-07T15:39:08;99453.81;;;12.15;72.22
18527;BME280;9393;42.158;24.748;2022-12-07T15:42:16;99459.34;;;12.12;72.07
18527;BME280;9393;42.158;24.748;2022-12-07T15:45:20;99451.25;;;11.98;73.19
18527;BME280;9393;42.158;24.748;2022-12-07T15:48:23;99449.34;;;12.08;72.91
18527;BME280;9393;42.158;24.748;2022-12-07T15:51:30;99456.75;;;12.12;72.82
18527;BME280;9393;42.158;24.748;2022-12-07T15:54:35;99452.03;;;12.16;72.95
18527;BME280;9393;42.158;24.748;2022-12-07T15:57:39;99456.53;;;12.06;73.22
18527;BME280;9393;42.158;24.748;2022-12-07T16:00:42;99453.72;;;11.99;73.34
18527;BME280;9393;42.158;24.748;2022-12-07T16:03:46;99461.38;;;12.01;73.54
18527;BME280;9393;42.158;24.748;2022-12-07T16:06:50;99455.13;;;11.94;73.94
18527;BME280;9393;42.158;24.748;2022-12-07T16:09:56;99462.09;;;11.85;74.14
18527;BME280;9393;42.158;24.748;2022-12-07T16:12:59;99475.38;;;11.92;74.02
18527;BME280;9393;42.158;24.748;2022-12-07T16:16:04;99475.16;;;11.85;73.97
18527;BME280;9393;42.158;24.748;2022-12-07T16:19:09;99469.63;;;11.88;73.85
18527;BME280;9393;42.158;24.748;2022-12-07T16:22:13;99471.22;;;11.81;74.56
18527;BME280;9393;42.158;24.748;2022-12-07T16:25:18;99477.72;;;11.77;74.86
18527;BME280;9393;42.158;24.748;2022-12-07T16:28:22;99478.31;;;11.71;74.93
18527;BME280;9393;42.158;24.748;2022-12-07T16:31:26;99479.03;;;11.63;75.50
18527;BME280;9393;42.158;24.748;2022-12-07T16:34:30;99471.81;;;11.75;75.12
18527;BME280;9393;42.158;24.748;2022-12-07T16:37:34;99476.41;;;11.63;75.25
18527;BME280;9393;42.158;24.748;2022-12-07T16:40:39;99477.34;;;11.72;75.12
18527;BME280;9393;42.158;24.748;2022-12-07T16:43:43;99482.16;;;11.49;76.08